createdAt,value
2018-09-19T04:29:12.204Z,13.53
2018-09-19T04:31:40.856Z,10.77
2018-09-19T04:34:09.573Z,10.03
2018-09-19T04:36:38.095Z,10.57
2018-09-19T04:39:08.341Z,11.87
2018-09-19T04:41:37.011Z,10.90
2018-09-19T04:44:05.705Z,10.20
2018-09-19T04:46:34.217Z,10.13
2018-09-19T04:49:02.751Z,9.57
2018-09-19T04:51:31.277Z,8.47
2018-09-19T04:53:59.803Z,9.80
2018-09-19T04:56:28.347Z,11.00
2018-09-19T04:58:57.264Z,7.63
2018-09-19T05:01:25.792Z,10.00
2018-09-19T05:03:54.729Z,8.73
2018-09-19T05:06:23.355Z,9.53
2018-09-19T05:08:51.895Z,10.77
2018-09-19T05:11:20.544Z,12.40
2018-09-19T05:13:49.097Z,11.07
2018-09-19T05:16:17.838Z,10.20
2018-09-19T05:18:46.370Z,10.60
2018-09-19T05:21:14.866Z,8.58
2018-09-19T05:23:43.419Z,10.57
2018-09-19T05:26:11.918Z,10.83
2018-09-19T05:28:40.582Z,9.50
2018-09-19T05:31:09.187Z,11.30
2018-09-19T05:33:37.718Z,10.77
2018-09-19T05:36:06.236Z,12.27
2018-09-19T05:38:34.923Z,12.47
2018-09-19T05:41:03.464Z,12.70
2018-09-19T05:43:32.006Z,12.00
2018-09-19T05:46:00.503Z,12.60
2018-09-19T05:48:29.029Z,11.47
2018-09-19T05:50:57.522Z,11.70
2018-09-19T05:53:26.024Z,9.43
2018-09-19T05:55:54.567Z,10.67
2018-09-19T05:58:23.098Z,10.60
2018-09-19T06:00:51.642Z,12.77
2018-09-19T06:03:20.122Z,10.53
2018-09-19T06:05:48.655Z,13.37
2018-09-19T06:08:17.153Z,9.93
2018-09-19T06:10:45.703Z,12.10
2018-09-19T06:13:14.217Z,9.60
2018-09-19T06:15:42.786Z,11.77
2018-09-19T06:18:11.313Z,14.00
2018-09-19T06:20:41.393Z,11.30
2018-09-19T06:23:09.983Z,10.67
2018-09-19T06:25:38.498Z,11.53
2018-09-19T06:28:07.013Z,9.93
2018-09-19T06:30:36.357Z,8.80
2018-09-19T06:33:06.160Z,8.63
2018-09-19T06:35:34.685Z,10.53
2018-09-19T06:38:03.169Z,11.37
2018-09-19T06:40:31.750Z,10.57
2018-09-19T06:43:00.209Z,9.37
2018-09-19T06:45:28.813Z,9.87
2018-09-19T06:47:57.320Z,8.73
2018-09-19T06:50:25.829Z,11.20
2018-09-19T06:52:54.329Z,12.50
2018-09-19T06:55:24.723Z,9.23
2018-09-19T06:57:53.842Z,10.32
2018-09-19T07:00:22.361Z,9.20
2018-09-19T07:02:53.096Z,11.67
2018-09-19T07:05:23.954Z,10.63
2018-09-19T07:07:52.466Z,7.75
2018-09-19T07:10:20.998Z,13.80
2018-09-19T07:12:49.502Z,10.55
2018-09-19T07:15:18.022Z,13.75
2018-09-19T07:17:46.526Z,9.03
2018-09-19T07:20:15.071Z,12.37
2018-09-19T07:22:43.591Z,11.73
2018-09-19T07:25:12.160Z,12.53
2018-09-19T07:27:40.641Z,11.43
2018-09-19T07:30:09.165Z,7.57
2018-09-19T07:32:37.780Z,11.07
2018-09-19T07:35:06.329Z,11.73
2018-09-19T07:37:34.844Z,10.37
2018-09-19T07:40:03.392Z,9.93
2018-09-19T07:42:31.924Z,10.93
2018-09-19T07:45:00.424Z,7.80
2018-09-19T07:47:28.934Z,7.77
2018-09-19T07:49:57.423Z,9.80
2018-09-19T07:52:25.932Z,8.03
2018-09-19T07:54:54.439Z,8.38
2018-09-19T07:57:22.971Z,10.10
2018-09-19T07:59:51.476Z,8.60
2018-09-19T08:02:20.017Z,9.65
2018-09-19T08:04:48.539Z,9.90
2018-09-19T08:07:17.063Z,8.88
2018-09-19T08:09:45.605Z,8.10
2018-09-19T08:12:14.132Z,11.95
2018-09-19T08:14:42.627Z,11.00
2018-09-19T08:17:11.159Z,7.35
2018-09-19T08:19:39.679Z,9.20
2018-09-19T08:22:08.230Z,7.00
2018-09-19T08:24:36.731Z,9.80
2018-09-19T08:27:05.279Z,9.25
2018-09-19T08:29:33.785Z,8.08
2018-09-19T08:32:02.332Z,6.95
2018-09-19T08:34:30.821Z,8.38
2018-09-19T08:36:59.366Z,7.92
2018-09-19T08:39:27.891Z,10.78
2018-09-19T08:41:56.418Z,8.93
2018-09-19T08:44:24.908Z,9.40
2018-09-19T08:46:53.411Z,7.92
2018-09-19T08:49:21.930Z,6.62
2018-09-19T08:51:50.462Z,8.28
2018-09-19T08:54:18.958Z,11.38
2018-09-19T08:56:47.473Z,8.33
2018-09-19T08:59:15.972Z,9.10
2018-09-19T09:01:44.499Z,9.60
2018-09-19T09:04:12.997Z,7.53
2018-09-19T09:06:41.510Z,8.58
2018-09-19T09:09:10.044Z,9.83
2018-09-19T09:11:38.532Z,9.98
2018-09-19T09:14:07.286Z,8.05
2018-09-19T09:16:35.779Z,7.33
2018-09-19T09:19:04.330Z,8.35
2018-09-19T09:21:32.835Z,6.55
2018-09-19T09:24:01.361Z,7.85
2018-09-19T09:26:29.871Z,8.25
2018-09-19T09:28:58.393Z,7.15
2018-09-19T09:31:26.938Z,11.48
2018-09-19T09:33:55.472Z,9.28
2018-09-19T09:36:23.999Z,11.10
2018-09-19T09:38:52.531Z,6.95
2018-09-19T09:41:21.019Z,8.08
2018-09-19T09:43:49.538Z,10.25
2018-09-19T09:46:18.080Z,6.55
2018-09-19T09:48:46.629Z,8.18
2018-09-19T09:51:15.138Z,7.28
2018-09-19T09:53:43.674Z,11.60
2018-09-19T09:56:12.162Z,8.33
2018-09-19T09:58:40.679Z,9.05
2018-09-19T10:01:09.292Z,6.28
2018-09-19T10:03:37.758Z,7.00
2018-09-19T10:06:06.277Z,6.95
2018-09-19T10:08:34.825Z,9.55
2018-09-19T10:11:03.311Z,8.15
2018-09-19T10:13:31.887Z,12.35
2018-09-19T10:16:00.341Z,7.30
2018-09-19T10:18:28.870Z,8.83
2018-09-19T10:20:57.339Z,7.00
2018-09-19T10:23:25.870Z,6.12
2018-09-19T10:25:54.370Z,5.85
2018-09-19T10:28:22.873Z,7.65
2018-09-19T10:30:51.431Z,10.58
2018-09-19T10:33:19.941Z,7.37
2018-09-19T10:35:48.506Z,7.45
2018-09-19T10:38:18.117Z,8.00
2018-09-19T10:40:47.262Z,5.87
2018-09-19T10:43:16.505Z,6.97
2018-09-19T10:45:45.968Z,6.17
2018-09-19T10:48:15.897Z,6.28
2018-09-19T10:50:45.058Z,8.58
2018-09-19T10:53:13.646Z,5.67
2018-09-19T10:55:42.160Z,6.53
2018-09-19T10:58:10.653Z,6.65
2018-09-19T11:00:39.167Z,5.85
2018-09-19T11:03:07.672Z,6.58
2018-09-19T11:05:36.190Z,9.45
2018-09-19T11:08:04.704Z,7.10
2018-09-19T11:10:33.221Z,4.53
2018-09-19T11:13:01.701Z,5.70
2018-09-19T11:15:30.221Z,5.97
2018-09-19T11:17:58.725Z,11.35
2018-09-19T11:20:27.307Z,7.42
2018-09-19T11:22:55.822Z,11.48
2018-09-19T11:25:24.353Z,6.87
2018-09-19T11:27:52.857Z,9.13
2018-09-19T11:30:21.417Z,6.05
2018-09-19T11:32:49.905Z,6.20
2018-09-19T11:35:18.445Z,4.80
2018-09-19T11:37:46.939Z,10.53
2018-09-19T11:40:15.470Z,6.33
2018-09-19T11:42:43.993Z,6.70
2018-09-19T11:45:12.516Z,4.85
2018-09-19T11:47:41.038Z,5.10
2018-09-19T11:50:09.582Z,6.40
2018-09-19T11:52:38.061Z,6.40
2018-09-19T11:55:07.265Z,7.33
2018-09-19T11:57:36.207Z,7.47
2018-09-19T12:00:05.253Z,4.80
2018-09-19T12:02:34.301Z,5.80
2018-09-19T12:05:02.927Z,5.55
2018-09-19T12:07:31.686Z,6.42
2018-09-19T12:10:01.474Z,7.10
2018-09-19T12:12:29.958Z,7.60
2018-09-19T12:14:58.577Z,5.83
2018-09-19T12:17:27.294Z,9.03
2018-09-19T12:19:55.816Z,3.70
2018-09-19T12:22:24.289Z,3.90
2018-09-19T12:24:52.826Z,5.45
2018-09-19T12:27:21.310Z,4.42
2018-09-19T12:29:49.825Z,5.05
2018-09-19T12:32:18.362Z,3.67
2018-09-19T12:34:46.878Z,5.47
2018-09-19T12:37:15.374Z,4.75
2018-09-19T12:39:43.903Z,5.97
2018-09-19T12:42:12.395Z,7.10
2018-09-19T12:44:40.911Z,7.33
2018-09-19T12:47:09.414Z,4.53
2018-09-19T12:49:37.943Z,4.80
2018-09-19T12:52:06.610Z,6.45
2018-09-19T12:54:35.120Z,5.62
2018-09-19T12:57:03.950Z,4.03
2018-09-19T12:59:33.384Z,4.33
2018-09-19T13:02:02.807Z,3.62
2018-09-19T13:04:32.266Z,3.80
2018-09-19T13:07:01.589Z,4.90
2018-09-19T13:09:31.071Z,4.37
2018-09-19T13:12:00.515Z,7.50
2018-09-19T13:14:29.920Z,4.97
2018-09-19T13:16:58.462Z,5.78
2018-09-19T13:19:27.519Z,7.50
2018-09-19T13:21:56.421Z,4.65
2018-09-19T13:24:24.931Z,5.78
2018-09-19T13:26:53.466Z,8.25
2018-09-19T13:29:21.947Z,5.10
2018-09-19T13:31:50.480Z,4.03
2018-09-19T13:34:18.984Z,5.95
2018-09-19T13:36:47.522Z,4.97
2018-09-19T13:39:17.069Z,5.53
2018-09-19T13:41:46.742Z,6.55
2018-09-19T13:44:15.299Z,6.67
2018-09-19T13:46:43.830Z,7.72
2018-09-19T13:49:48.163Z,4.80
2018-09-19T13:52:16.756Z,7.33
2018-09-19T13:54:45.315Z,6.35
2018-09-19T13:57:14.147Z,4.70
2018-09-19T13:59:42.677Z,3.92
2018-09-19T14:02:11.217Z,6.03
2018-09-19T14:04:39.762Z,5.08
2018-09-19T14:07:08.406Z,5.92
2018-09-19T14:09:36.939Z,6.00
2018-09-19T14:12:05.487Z,4.75
2018-09-19T14:14:34.038Z,5.37
2018-09-19T14:17:02.565Z,5.08
2018-09-19T14:19:31.146Z,6.83
2018-09-19T14:21:59.713Z,5.72
2018-09-19T14:24:28.230Z,8.58
2018-09-19T14:26:57.652Z,4.80
2018-09-19T14:29:28.330Z,5.55
2018-09-19T14:32:00.932Z,6.10
2018-09-19T14:34:30.782Z,8.58
2018-09-19T14:37:03.553Z,6.75
2018-09-19T14:39:32.487Z,5.95
2018-09-19T14:42:02.539Z,5.00
2018-09-19T14:44:31.711Z,5.03
2018-09-19T14:47:00.439Z,8.83
2018-09-19T14:49:30.466Z,6.67
2018-09-19T14:51:59.879Z,5.28
2018-09-19T14:54:28.509Z,7.28
2018-09-19T14:56:59.457Z,5.05
2018-09-19T14:59:28.045Z,10.38
2018-09-19T15:01:56.639Z,7.90
2018-09-19T15:04:26.595Z,4.45
2018-09-19T15:06:59.184Z,7.40
2018-09-19T15:09:29.618Z,7.12
2018-09-19T15:11:58.185Z,6.65
2018-09-19T15:14:27.794Z,7.65
2018-09-19T15:16:56.425Z,5.67
2018-09-19T15:19:24.924Z,7.95
2018-09-19T15:21:53.475Z,6.53
2018-09-19T15:24:23.172Z,8.93
2018-09-19T15:26:52.819Z,9.23
2018-09-19T15:29:23.098Z,10.90
2018-09-19T15:31:53.118Z,4.85
2018-09-19T15:34:22.915Z,9.45
2018-09-19T15:36:52.170Z,9.85
2018-09-19T15:39:21.730Z,6.40
2018-09-19T15:41:51.720Z,6.20
2018-09-19T15:44:20.533Z,4.05
2018-09-19T15:46:51.549Z,6.33
2018-09-19T15:49:20.083Z,6.97
2018-09-19T15:51:48.579Z,5.47
2018-09-19T15:54:17.118Z,7.95
2018-09-19T15:56:46.319Z,8.08
2018-09-19T15:59:14.859Z,6.05
2018-09-19T16:01:43.427Z,6.67
2018-09-19T16:04:12.355Z,6.75
2018-09-19T16:06:40.911Z,7.40
2018-09-19T16:09:11.952Z,5.75
2018-09-19T16:11:40.758Z,7.30
2018-09-19T16:14:09.737Z,9.03
2018-09-19T16:16:38.359Z,6.42
2018-09-19T16:19:06.894Z,6.60
2018-09-19T16:21:35.435Z,7.78
2018-09-19T16:24:04.062Z,6.28
2018-09-19T16:26:32.598Z,8.88
2018-09-19T16:29:01.141Z,7.67
2018-09-19T16:31:29.638Z,6.62
2018-09-19T16:33:58.170Z,9.53
2018-09-19T16:36:26.657Z,6.62
2018-09-19T16:38:55.167Z,8.63
2018-09-19T16:41:23.702Z,8.78
2018-09-19T16:43:52.346Z,5.60
2018-09-19T16:46:20.885Z,6.35
2018-09-19T16:48:49.613Z,7.58
2018-09-19T16:51:18.446Z,6.92
2018-09-19T16:53:47.102Z,6.67
2018-09-19T16:56:15.859Z,6.60
2018-09-19T16:58:44.403Z,5.20
2018-09-19T17:01:12.954Z,6.92
2018-09-19T17:03:41.470Z,8.35
2018-09-19T17:06:09.987Z,9.10
2018-09-19T17:08:38.787Z,6.97
2018-09-19T17:11:09.122Z,6.87
2018-09-19T17:13:37.640Z,6.97
2018-09-19T17:16:06.493Z,7.35
2018-09-19T17:18:37.161Z,8.00
2018-09-19T17:21:05.805Z,11.35
2018-09-19T17:23:34.332Z,8.03
2018-09-19T17:26:03.680Z,5.58
2018-09-19T17:28:33.491Z,6.00
2018-09-19T17:31:02.395Z,5.72
2018-09-19T17:33:30.899Z,11.30
2018-09-19T17:36:00.569Z,7.37
2018-09-19T17:38:29.258Z,6.65
2018-09-19T17:40:57.795Z,4.97
2018-09-19T17:43:27.909Z,6.60
2018-09-19T17:45:56.476Z,11.63
2018-09-19T17:48:25.111Z,7.65
2018-09-19T17:50:53.781Z,11.70
2018-09-19T17:53:23.507Z,9.13
2018-09-19T17:55:52.030Z,9.50
2018-09-19T17:58:20.615Z,9.80
2018-09-19T18:00:51.132Z,8.88
2018-09-19T18:03:20.162Z,8.35
2018-09-19T18:05:52.126Z,7.45
2018-09-19T18:08:21.700Z,8.75
2018-09-19T18:10:50.249Z,7.67
2018-09-19T18:13:20.619Z,6.87
2018-09-19T18:15:51.654Z,6.75
2018-09-19T18:18:21.669Z,6.50
2018-09-19T18:20:52.292Z,9.53
2018-09-19T18:23:20.818Z,9.15
2018-09-19T18:25:51.694Z,8.83
2018-09-19T18:28:20.193Z,7.12
2018-09-19T18:30:50.097Z,7.92
2018-09-19T18:33:18.698Z,11.65
2018-09-19T18:35:47.527Z,9.58
2018-09-19T18:38:16.495Z,6.83
2018-09-19T18:40:45.027Z,7.53
2018-09-19T18:43:15.480Z,10.95
2018-09-19T18:45:44.075Z,8.98
2018-09-19T18:48:12.557Z,8.83
2018-09-19T18:50:45.870Z,6.83
2018-09-19T18:53:15.090Z,7.17
2018-09-19T18:55:43.859Z,6.47
2018-09-19T18:58:15.496Z,8.13
2018-09-19T19:00:47.638Z,6.80
2018-09-19T19:03:16.909Z,6.40
2018-09-19T19:05:46.001Z,6.85
2018-09-19T19:08:14.532Z,5.42
2018-09-19T19:10:46.293Z,8.28
2018-09-19T19:13:19.231Z,8.73
2018-09-19T19:15:49.928Z,11.83
2018-09-19T19:18:20.218Z,11.97
2018-09-19T19:20:49.744Z,14.35
2018-09-19T19:23:18.299Z,11.75
2018-09-19T19:25:46.874Z,13.38
2018-09-19T19:28:16.887Z,14.33
2018-09-19T19:30:48.217Z,11.22
2018-09-19T19:33:18.218Z,8.93
2018-09-19T19:35:46.891Z,10.85
2018-09-19T19:38:15.439Z,10.60
2018-09-19T19:40:47.065Z,11.30
2018-09-19T19:43:16.530Z,7.95
2018-09-19T19:45:45.021Z,9.43
2018-09-19T19:48:13.595Z,6.85
2018-09-19T19:50:42.095Z,12.65
2018-09-19T19:53:10.632Z,12.03
2018-09-19T19:55:39.123Z,9.05
2018-09-19T19:58:07.671Z,10.03
2018-09-19T20:00:36.295Z,9.93
2018-09-19T20:03:05.831Z,6.87
2018-09-19T20:05:34.342Z,6.67
2018-09-19T20:08:02.893Z,7.10
2018-09-19T20:10:31.670Z,7.05
2018-09-19T20:13:00.195Z,8.90
2018-09-19T20:15:28.717Z,7.90
2018-09-19T20:17:57.250Z,7.60
2018-09-19T20:20:26.318Z,7.30
2018-09-19T20:22:58.827Z,6.62
2018-09-19T20:25:27.359Z,10.28
2018-09-19T20:27:55.902Z,8.00
2018-09-19T20:30:24.413Z,5.87
2018-09-19T20:32:53.033Z,5.90
2018-09-19T20:35:21.558Z,7.28
2018-09-19T20:37:50.083Z,7.40
2018-09-19T20:40:18.597Z,8.25
2018-09-19T20:42:47.118Z,6.58
2018-09-19T20:45:15.602Z,7.75
2018-09-19T20:47:44.214Z,9.03
2018-09-19T20:50:12.706Z,6.60
2018-09-19T20:52:41.238Z,8.28
2018-09-19T20:55:09.740Z,8.68
2018-09-19T20:57:38.287Z,14.68
2018-09-19T21:00:07.005Z,12.73
2018-09-19T21:02:35.579Z,10.20
2018-09-19T21:05:04.138Z,10.70
2018-09-19T21:07:32.674Z,13.62
2018-09-19T21:10:01.190Z,11.18
2018-09-19T21:12:29.710Z,10.63
2018-09-19T21:14:58.228Z,8.88
2018-09-19T21:17:26.758Z,11.85
2018-09-19T21:19:55.263Z,36.55
2018-09-19T21:22:23.913Z,29.98
2018-09-19T21:24:52.282Z,17.48
2018-09-19T21:27:20.790Z,15.72
2018-09-19T21:29:49.301Z,14.03
2018-09-19T21:32:17.921Z,18.85
2018-09-19T21:34:46.391Z,20.70
2018-09-19T21:37:14.919Z,15.63
2018-09-19T21:39:43.431Z,14.73
2018-09-19T21:42:11.934Z,17.80
2018-09-19T21:44:40.463Z,14.75
2018-09-19T21:47:08.974Z,13.00
2018-09-19T21:49:37.489Z,20.32
2018-09-19T21:52:06.051Z,11.38
2018-09-19T21:54:34.598Z,16.20
2018-09-19T21:57:03.089Z,18.35
